Grand Rapids, MI

5:00 PM EST on January 31, 2015 (GMT -0500)
WXGR.NET | Change Station
CLOSE
Current Station
Personal Weather Station
Location: Grand Rapids, MI
Elevation: 756 ft
Nearby Weather Stations
Active Advisory: Winter Weather Advisory

Elev 756 ft 42.96 °N, 85.63 °W | Updated 6 seconds ago

Overcast
Overcast
33.3 °F
Feels Like 30 °F
N
3.6
Wind Variable Wind from WNW
Gusts 3.6 mph

Today
High -- | Low -- °F
--% Chance of Precip.
Yesterday
High -- | Low -- °F
Precip. -- in
7:58 AM 5:53 PM
Waxing Gibbous, 91% visible
Pressure 30.20 in
Visibility 8.0 miles
Clouds Overcast 1900 ft
Windchill 30 °F
Dew Point 26 °F
Humidity 76%
Rainfall 0.00 in
Snow Depth Not available.
UV 0 out of 12
Pollen .10 out of 12
Air Quality Not available.
Flu Activity Not available.
METAR KGRR 312153Z 24010KT 8SM OVC019 00/M04 A3016 RMK AO2 SLP225 T00001039

More Conditions Fewer Conditions

Pressure 30.20 in
Visibility 8.0 miles
Clouds Overcast 1900 ft
Windchill 30 °F
Dew Point 26 °F
Humidity 76%
Rainfall 0.00 in
Snow Depth Not available.
UV 0 out of 12
Pollen .10 out of 12
Air Quality Not available.
Flu Activity Not available.
METAR KGRR 312153Z 24010KT 8SM OVC019 00/M04 A3016 RMK AO2 SLP225 T00001039

More Conditions Fewer Conditions

10-Day Weather Forecast

Almanac

Astronomy

Jan. 31, 2015 Rise Set
Actual Time
Civil Twilight
Nautical Twilight
Astronomical Twilight
Moon
Length of Visible Light
Length of Day
Tomorrow will be .
, % of the Moon is Illuminated

Today's Extremes

State Highs State Lows

Community

WunderPhotos

Upload Photos

1,792,221 photos uploaded!

WunderBlogs® & News

Nearby

Air Quality

  Air Quality AQ Index Pollutant
Not available.

Snow Depth

Station Depth Elevation

Earthquake Activity

City Distance Mag. Time & Date
Minimum magnitude displayed is 2.5.

Coastal Water Temperatures

Place Temperature

Nearby Weather Stations